Terminal Aerodrome Forecast
Issued by NWS Cleveland, OH

Home | Current Version | Previous Version | Graphics & Text | Print | Product List | Glossary On
Versions: 1 2 3 4 5 6 7 8 9 10 11 12 13 14 15 16 17 18 19 20 21 22 23
000
FTUS41 KCLE 151100
TAFMFD
TAF
KMFD 151123Z 1512/1612 31012G20KT 5SM -SN BR OVC012
      TEMPO 1512/1514 2SM -SHSN OVC008
     FM151400 31012G18KT 6SM -SHSN OVC025
      TEMPO 1514/1516 5SM -SHSN OVC012
     FM151600 31014G20KT P6SM BKN025
     FM151900 32014G20KT P6SM SCT025 BKN050
     FM160000 31012KT P6SM SCT250
     FM160300 30003KT P6SM SKC=

USA.gov is the U.S. government's official web portal to all federal, state and local government web resources and services.